»·PEaware :: SWA2617 KRNO-KLAX

SWA2617 :: KRNO-KLAX

FLIGHT INFORMATION

Flight Status: Arrived
Operator:
Southwest Airlines
More flights by this operator :: More flights under this callsign
Pilot: Aundrey S. (17120)
Aircraft: BOEING 737-900
(B739)
More flights by this aircraft type
Origin: KRNO Reno/Tahoe Intl
United States
Destination: KLAX Los Angeles Intl
United States
More flights between these airports :: More routes between these airports
Route: +ZEFFR6 DARBI FRA J7 REBRG IRNMN2
File this flight plan on PilotEdge
Remarks:
Altitude:
(Current/Filed)
37,000ft
Speed:
(Current/Filed)
450kts
Departed: 09-Feb-19 06:57 PM
Arrived: 09-Feb-19 08:11 PM
Distance/Time
Traveled:
340nm/1:14
Distance/Time
To Go:
Arrived

Flight Plot

Page will automatically refresh every two minutes.

Flight plan parsing failed; only flown route is shown


Map Options




Map Legend


Flown Route
Filed Route
Departure Airport
Arrival Airport
Navaid (VOR, NDB)
Fix

Horizontal Profiles

Position Reports

Time Latitude Longitude Heading Altitude Ground
Speed
09-Feb-19 18:15 39.504423 -119.773747 359 4414ft 0kts
09-Feb-19 18:16 39.504423 -119.773747 359 4414ft 0kts
09-Feb-19 18:17 39.504423 -119.773747 359 4414ft 0kts
09-Feb-19 18:18 39.504423 -119.773747 359 4414ft 0kts
09-Feb-19 18:19 39.504423 -119.773747 359 4414ft 0kts
09-Feb-19 18:20 39.504423 -119.773747 359 4414ft 0kts
09-Feb-19 18:21 39.504423 -119.773747 359 4414ft 0kts
09-Feb-19 18:21 39.504423 -119.773747 359 4414ft 0kts
09-Feb-19 18:23 39.504423 -119.773747 359 4414ft 0kts
09-Feb-19 18:24 39.504423 -119.773747 359 4414ft 0kts
09-Feb-19 18:24 39.504423 -119.773747 359 4414ft 0kts
09-Feb-19 18:25 39.504423 -119.773747 359 4414ft 0kts
09-Feb-19 18:26 39.504423 -119.773747 359 4414ft 0kts
09-Feb-19 18:28 39.504423 -119.773747 359 4414ft 0kts
09-Feb-19 18:28 39.504423 -119.773747 359 4414ft 0kts
09-Feb-19 18:29 39.504423 -119.773747 359 4414ft 0kts
09-Feb-19 18:30 39.504423 -119.773747 359 4414ft 0kts
09-Feb-19 18:31 39.504423 -119.773747 359 4414ft 0kts
09-Feb-19 18:32 39.504423 -119.773747 359 4414ft 0kts
09-Feb-19 18:33 39.504423 -119.773747 359 4414ft 0kts
09-Feb-19 18:34 39.504423 -119.773747 359 4414ft 0kts
09-Feb-19 18:35 39.504423 -119.773747 359 4414ft 0kts
09-Feb-19 18:36 39.504423 -119.773747 359 4414ft 0kts
09-Feb-19 18:37 39.504423 -119.773747 359 4414ft 0kts
09-Feb-19 18:38 39.504423 -119.773747 359 4414ft 0kts
09-Feb-19 18:39 39.504423 -119.773747 359 4414ft 0kts
09-Feb-19 18:40 39.504423 -119.773747 359 4414ft 0kts
09-Feb-19 18:41 39.504423 -119.773747 359 4414ft 0kts
09-Feb-19 18:42 39.504423 -119.773747 359 4414ft 0kts
09-Feb-19 18:43 39.503951 -119.773745 359 4414ft 0kts
09-Feb-19 18:44 39.503951 -119.773745 359 4414ft 0kts
09-Feb-19 18:45 39.503952 -119.773745 359 4414ft 0kts
09-Feb-19 18:46 39.503952 -119.773745 359 4414ft 0kts
09-Feb-19 18:47 39.503952 -119.773745 359 4414ft 0kts
09-Feb-19 18:48 39.503952 -119.773745 359 4414ft 0kts
09-Feb-19 18:49 39.503952 -119.773745 359 4414ft 0kts
09-Feb-19 18:50 39.503787 -119.772609 102 4412ft 10kts
09-Feb-19 18:51 39.505931 -119.771493 359 4412ft 11kts
09-Feb-19 18:52 39.511046 -119.771486 0 4416ft 18kts
09-Feb-19 18:53 39.513741 -119.770626 89 4418ft 2kts
09-Feb-19 18:54 39.513742 -119.770576 89 4418ft 0kts
09-Feb-19 18:55 39.513715 -119.769581 106 4418ft 7kts
09-Feb-19 18:56 39.494134 -119.769519 181 4493ft 169kts
09-Feb-19 18:57 39.434422 -119.769247 182 6881ft 244kts
09-Feb-19 18:58 39.364329 -119.769641 185 10345ft 256kts
09-Feb-19 18:59 39.287785 -119.769115 185 12928ft 294kts
09-Feb-19 19:00 39.202998 -119.765892 186 15634ft 314kts
09-Feb-19 19:01 39.113466 -119.762486 187 17471ft 331kts
09-Feb-19 19:02 39.019401 -119.758923 188 19119ft 344kts
09-Feb-19 19:03 38.921673 -119.755266 189 20710ft 357kts
09-Feb-19 19:04 38.821535 -119.751551 189 22196ft 369kts
09-Feb-19 19:05 38.717513 -119.747704 190 23594ft 381kts
09-Feb-19 19:06 38.610220 -119.743726 190 24937ft 391kts
09-Feb-19 19:07 38.500076 -119.739663 190 26202ft 402kts
09-Feb-19 19:08 38.387191 -119.735476 190 27447ft 412kts
09-Feb-19 19:09 38.271653 -119.730039 187 28655ft 426kts
09-Feb-19 19:10 38.153455 -119.716128 187 29999ft 429kts
09-Feb-19 19:11 38.035079 -119.702225 187 31456ft 426kts
09-Feb-19 19:12 37.917468 -119.688543 186 32855ft 422kts
09-Feb-19 19:13 37.801544 -119.675157 186 34041ft 420kts
09-Feb-19 19:14 37.685886 -119.661825 185 35197ft 416kts
09-Feb-19 19:15 37.570358 -119.648543 185 36226ft 414kts
09-Feb-19 19:16 37.455188 -119.635382 184 36904ft 421kts
09-Feb-19 19:17 37.335249 -119.621916 184 36916ft 448kts
09-Feb-19 19:18 37.209755 -119.607650 183 36946ft 453kts
09-Feb-19 19:19 37.084597 -119.594964 189 37034ft 446kts
09-Feb-19 19:20 36.960091 -119.596941 189 37034ft 444kts
09-Feb-19 19:21 36.837446 -119.599252 189 37033ft 445kts
09-Feb-19 19:22 36.713144 -119.601531 189 37034ft 445kts
09-Feb-19 19:23 36.591985 -119.603697 190 37039ft 443kts
09-Feb-19 19:24 36.468114 -119.605918 190 37063ft 444kts
09-Feb-19 19:25 36.344815 -119.608088 190 37075ft 444kts
09-Feb-19 19:26 36.221691 -119.610236 190 37070ft 443kts
09-Feb-19 19:27 36.098562 -119.612408 190 37070ft 443kts
09-Feb-19 19:28 35.975904 -119.617553 201 37062ft 428kts
09-Feb-19 19:29 35.863133 -119.658372 206 37062ft 422kts
09-Feb-19 19:30 35.751456 -119.700304 206 37059ft 422kts
09-Feb-19 19:31 35.638107 -119.739789 201 37065ft 428kts
09-Feb-19 19:32 35.521290 -119.768260 200 37058ft 429kts
09-Feb-19 19:33 35.404594 -119.796435 200 37061ft 426kts
09-Feb-19 19:34 35.286527 -119.804622 168 37096ft 468kts
09-Feb-19 19:35 35.173733 -119.714765 151 37071ft 490kts
09-Feb-19 19:36 35.064784 -119.613868 150 34756ft 505kts
09-Feb-19 19:37 34.955349 -119.512458 149 32595ft 490kts
09-Feb-19 19:38 34.845310 -119.412746 149 29247ft 501kts
09-Feb-19 19:39 34.736692 -119.315794 149 25538ft 444kts
09-Feb-19 19:40 34.639363 -119.230835 149 23330ft 426kts
09-Feb-19 19:41 34.545184 -119.149407 148 21348ft 411kts
09-Feb-19 19:42 34.453143 -119.068089 148 19408ft 407kts
09-Feb-19 19:43 34.361689 -118.988607 148 17488ft 402kts
09-Feb-19 19:44 34.271263 -118.907717 146 15398ft 402kts
09-Feb-19 19:45 34.183486 -118.827392 146 13419ft 398kts
09-Feb-19 19:46 34.106842 -118.748236 141 11756ft 327kts
09-Feb-19 19:47 34.041583 -118.675876 129 10300ft 303kts
09-Feb-19 19:48 34.022291 -118.579682 96 8979ft 296kts
09-Feb-19 19:49 34.013677 -118.489174 96 7759ft 260kts
09-Feb-19 19:50 34.016446 -118.415847 77 6781ft 250kts
09-Feb-19 19:51 34.028907 -118.337513 82 6013ft 237kts
09-Feb-19 19:52 34.037182 -118.257640 83 5998ft 238kts
09-Feb-19 19:53 34.045429 -118.176389 83 4975ft 237kts
09-Feb-19 19:54 34.053515 -118.097890 83 5000ft 234kts
09-Feb-19 19:55 34.061541 -118.019905 82 4999ft 234kts
09-Feb-19 19:56 34.069583 -117.941922 82 5004ft 234kts
09-Feb-19 19:57 34.077643 -117.863901 82 5000ft 233kts
09-Feb-19 19:58 34.059147 -117.796159 159 4996ft 220kts
09-Feb-19 19:59 34.012970 -117.823768 256 5019ft 205kts
09-Feb-19 20:00 34.004367 -117.891993 262 4999ft 205kts
09-Feb-19 20:01 33.996938 -117.960420 263 4999ft 205kts
09-Feb-19 20:02 33.990134 -118.028936 263 5005ft 205kts
09-Feb-19 20:03 33.983592 -118.094604 263 5003ft 195kts
09-Feb-19 20:04 33.976980 -118.160322 262 4134ft 197kts
09-Feb-19 20:05 33.970688 -118.221933 262 3081ft 169kts
09-Feb-19 20:06 33.965149 -118.276029 262 2247ft 159kts
09-Feb-19 20:07 33.960248 -118.323920 262 1447ft 141kts
09-Feb-19 20:08 33.955768 -118.369700 261 670ft 135kts
09-Feb-19 20:09 33.951003 -118.412374 263 123ft 75kts
09-Feb-19 20:11 33.949790 -118.418595 234 119ft 2kts
09-Feb-19 20:12 33.949755 -118.418656 234 119ft 3kts
09-Feb-19 20:13 33.947255 -118.422383 187 116ft 12kts
09-Feb-19 20:14 33.947308 -118.417712 83 119ft 22kts
09-Feb-19 20:15 33.948207 -118.410286 83 122ft 22kts
09-Feb-19 20:16 33.947930 -118.404915 84 119ft 13kts
09-Feb-19 20:17 33.946721 -118.402413 129 117ft 7kts

Navigation Log

Ident Type
Flight plan parsing failed, navigation log unavailable